Portada
METAR-TAF:

METAR-TAF

Aeropuertos :

Aeropuerto de Jerez

Jerez de la Frontera, España

latitud: 36-45N, longitud: 006-04W, altitud: 27 m

Observación

El informe se hizo hace 35 minutos, a las 12:30 UTC
Viento 6 kt del sur-suroeste, variando entre sur y oeste
Temperatura 31°C
Humedad 31%
Presión 1014 hPa
Visibilidad 10 km o más
sin nubes por debajo de 1500 m y sin presencia de cumulonimbus.

METAR: LEJR 141230Z 20006KT 170V270 CAVOK 31/12 Q1014

Hora: 15:05 (13:05 UTC)

Pronóstico

El informe se hizo hace 5 horas y 5 minutos, a las 08:00 UTC
Pronóstico válido del 14 a las 09 UTC al 15 a las 09 UTC
Viento 10 kt del suroeste
Visibilidad 10 km o más
sin nubes por debajo de 1500 m y sin presencia de cumulonimbus.
Evolucionando progresivamente
del 14 a las 20 UTC al 14 a las 22 UTC
Viento 4 kt del sur-sureste

TAF: LEJR 140800Z 1409/1509 23010KT CAVOK TX32/1415Z TN17/1506Z BECMG 1420/1422 15004KT

Observaciones y pronósticos meteorológicos de más de 4000 aeropuertos (mensajes METAR y TAF).

Los puntos amarillos y rojos representan las estaciones disponibles.

Ponga el ratón en el punto deseado para ver el nombre de la estación.

Haga clic para ver las observaciones y los pronósticos meteorológicos.

Para cambiar el mapa : haga clic en los botones verdes con una cruz de color negro para hacer un zoom, en el botón verde con un guión para alejar o en las flechas verdes para mapas adyacentes.


METAR-TAF: